Time;durP1;ratioP1;P1;durP2;ratioP2;P2;SDS_P1;SDS_P2;PMS_P1;PMS_P2;Temp;Humidity;BMP_temperature;BMP_pressure;BME280_temperature;BME280_humidity;BME280_pressure;Samples;Min_cycle;Max_cycle;Signal;HPM_P1;HPM_P2
2023/01/14 00:00:11;;;;;;;5.10;0.50;;;;;;;5.91;77.90;99458.91;4946268;28;20055;-74
2023/01/14 00:02:38;;;;;;;11.55;0.90;;;;;;;5.94;78.04;99459.72;4938712;28;20159;-73
2023/01/14 00:05:06;;;;;;;4.18;0.70;;;;;;;5.95;78.00;99466.66;4941722;28;20043;-74
2023/01/14 00:07:32;;;;;;;14.35;0.90;;;;;;;5.95;77.96;99461.47;4944120;28;20420;-74
2023/01/14 00:09:59;;;;;;;7.70;1.25;;;;;;;5.96;78.01;99472.69;4942162;28;20415;-73
2023/01/14 00:12:28;;;;;;;9.48;1.75;;;;;;;5.96;78.01;99460.56;4942541;28;20059;-73
2023/01/14 00:14:54;;;;;;;11.80;0.88;;;;;;;5.95;77.81;99461.47;4944229;28;20130;-74
2023/01/14 00:17:21;;;;;;;8.82;1.35;;;;;;;5.98;77.91;99468.31;4940097;28;20046;-73
2023/01/14 00:19:48;;;;;;;6.38;0.50;;;;;;;5.98;78.15;99464.00;4951513;28;20416;-73
2023/01/14 00:22:15;;;;;;;7.32;1.27;;;;;;;5.97;77.95;99464.84;4945569;28;20433;-74
2023/01/14 00:24:42;;;;;;;5.78;1.40;;;;;;;5.97;77.80;99464.84;4944617;28;20047;-73
2023/01/14 00:27:09;;;;;;;10.15;1.55;;;;;;;5.98;77.92;99453.63;4946985;28;20844;-74
2023/01/14 00:29:37;;;;;;;4.95;0.60;;;;;;;5.99;78.14;99457.91;4950380;28;20055;-73
2023/01/14 00:32:06;;;;;;;6.75;0.60;;;;;;;5.97;78.11;99454.47;4946643;28;20051;-74
2023/01/14 00:34:36;;;;;;;7.30;1.50;;;;;;;5.98;78.04;99457.97;4948566;29;20052;-74
2023/01/14 00:37:03;;;;;;;8.27;0.95;;;;;;;6.00;78.00;99450.97;4947040;28;20511;-74
2023/01/14 00:39:30;;;;;;;5.88;0.95;;;;;;;5.99;78.04;99451.88;4949111;28;20051;-74
2023/01/14 00:41:57;;;;;;;7.15;0.82;;;;;;;6.00;78.08;99453.56;4947487;28;20058;-74
2023/01/14 00:44:24;;;;;;;13.57;1.30;;;;;;;5.99;77.90;99450.13;4948697;28;20054;-74
2023/01/14 00:46:53;;;;;;;8.02;0.80;;;;;;;6.00;78.01;99444.03;4945610;28;20053;-75
2023/01/14 00:49:22;;;;;;;10.63;3.15;;;;;;;6.01;78.17;99445.78;4944878;28;20054;-74
2023/01/14 00:51:49;;;;;;;8.15;1.40;;;;;;;6.02;77.93;99444.88;4945662;28;20519;-74
2023/01/14 00:54:17;;;;;;;9.07;0.43;;;;;;;6.03;78.13;99454.38;4949183;28;20507;-74
2023/01/14 00:56:44;;;;;;;2.10;0.40;;;;;;;6.03;77.97;99448.31;4947646;28;20055;-73
2023/01/14 00:59:17;;;;;;;8.10;1.08;;;;;;;6.01;78.18;99440.59;4949272;28;20073;-73
2023/01/14 01:01:45;;;;;;;6.25;1.00;;;;;;;6.02;78.08;99452.66;4945562;28;20107;-74
2023/01/14 01:04:13;;;;;;;8.20;0.70;;;;;;;6.01;78.17;99450.97;4944746;28;20058;-73
2023/01/14 01:06:40;;;;;;;7.32;0.63;;;;;;;6.03;77.96;99454.38;4949720;28;20059;-74
2023/01/14 01:09:07;;;;;;;7.15;0.68;;;;;;;6.04;77.92;99450.91;4945658;28;20043;-74
2023/01/14 01:11:34;;;;;;;6.35;0.88;;;;;;;6.03;77.82;99453.50;4947992;28;20047;-74
2023/01/14 01:14:01;;;;;;;5.85;0.70;;;;;;;6.04;78.10;99456.06;4948189;28;20389;-74
2023/01/14 01:16:27;;;;;;;10.50;1.27;;;;;;;6.05;77.87;99455.19;4948780;28;20062;-73
2023/01/14 01:18:56;;;;;;;7.57;0.60;;;;;;;6.05;77.96;99451.75;4947429;28;20043;-73
2023/01/14 01:21:26;;;;;;;8.57;0.95;;;;;;;6.06;77.69;99456.03;4941954;28;20051;-74
2023/01/14 01:23:53;;;;;;;4.40;0.68;;;;;;;6.07;77.73;99460.34;4945611;29;20051;-74
2023/01/14 01:26:21;;;;;;;6.60;0.50;;;;;;;6.07;77.94;99461.19;4943221;28;20464;-74
2023/01/14 01:28:50;;;;;;;7.93;0.80;;;;;;;6.07;78.33;99456.00;4940283;28;20045;-73
2023/01/14 01:31:17;;;;;;;6.07;0.82;;;;;;;6.07;77.82;99443.03;4948948;28;20083;-74
2023/01/14 01:33:44;;;;;;;7.07;1.05;;;;;;;6.08;77.93;99455.13;4944889;29;20052;-74
2023/01/14 01:36:15;;;;;;;11.13;0.80;;;;;;;6.08;77.92;99451.66;4944188;28;20050;-74
2023/01/14 01:38:45;;;;;;;6.93;0.70;;;;;;;6.08;77.90;99452.53;4944502;28;20051;-73
2023/01/14 01:41:15;;;;;;;5.95;0.82;;;;;;;6.09;77.96;99448.22;4944824;28;20122;-74
2023/01/14 01:44:04;;;;;;;7.82;0.73;;;;;;;6.10;77.76;99444.72;4942641;28;20436;-74
2023/01/14 01:46:32;;;;;;;6.35;0.52;;;;;;;6.09;77.94;99445.63;4942113;29;20424;-74
2023/01/14 01:49:03;;;;;;;6.88;0.55;;;;;;;6.10;77.76;99444.72;4942852;28;20497;-74
2023/01/14 01:51:36;;;;;;;7.78;1.02;;;;;;;6.08;77.81;99441.31;4940739;28;20043;-74
2023/01/14 01:54:06;;;;;;;8.95;0.63;;;;;;;6.11;77.77;99441.22;4943743;29;20416;-74
2023/01/14 01:56:35;;;;;;;5.35;1.15;;;;;;;6.12;77.77;99442.06;4942312;29;20050;-74
2023/01/14 01:59:06;;;;;;;10.23;1.52;;;;;;;6.13;77.93;99438.63;4942379;28;20082;-74
2023/01/14 02:01:33;;;;;;;6.80;0.82;;;;;;;6.13;77.66;99441.22;4943738;28;20646;-74
2023/01/14 02:04:00;;;;;;;7.00;2.17;;;;;;;6.13;77.72;99444.66;4942360;28;20078;-74
2023/01/14 02:06:27;;;;;;;8.35;0.77;;;;;;;6.13;77.87;99446.41;4942575;28;20142;-74
2023/01/14 02:08:56;;;;;;;7.13;0.70;;;;;;;6.12;77.66;99442.97;4944358;28;20098;-73
2023/01/14 02:11:54;;;;;;;12.48;0.70;;;;;;;6.13;77.76;99443.81;4942561;28;20043;-74
2023/01/14 02:14:34;;;;;;;4.07;0.40;;;;;;;6.12;77.79;99447.25;4941976;28;20035;-73
2023/01/14 02:17:08;;;;;;;10.15;0.77;;;;;;;6.11;77.60;99442.97;4938963;28;20485;-74
2023/01/14 02:20:03;;;;;;;8.83;0.87;;;;;;;6.11;77.68;99442.97;4942604;28;20057;-73
2023/01/14 02:22:45;;;;;;;3.40;0.80;;;;;;;6.09;77.65;99443.03;4941748;28;20055;-73
2023/01/14 02:25:45;;;;;;;8.88;1.55;;;;;;;6.10;77.69;99443.88;4942971;28;20051;-74
2023/01/14 02:28:24;;;;;;;9.15;0.95;;;;;;;6.11;77.59;99450.75;4945075;28;20049;-74
2023/01/14 02:31:01;;;;;;;8.57;0.50;;;;;;;6.11;77.76;99455.94;4944340;28;20047;-73
2023/01/14 02:33:45;;;;;;;12.20;0.85;;;;;;;6.07;77.78;99444.78;4940926;28;20062;-73
2023/01/14 02:36:23;;;;;;;7.75;0.65;;;;;;;6.10;77.58;99449.06;4942246;28;20051;-74
2023/01/14 02:38:58;;;;;;;10.80;1.10;;;;;;;6.07;77.47;99444.78;4943525;28;20522;-73
2023/01/14 02:44:14;;;;;;;8.68;0.50;;;;;;;6.06;77.82;99443.06;4939826;28;20142;-73
2023/01/14 02:46:47;;;;;;;8.15;0.77;;;;;;;6.07;77.95;99445.63;4940830;28;20743;-74
2023/01/14 02:49:18;;;;;;;6.47;0.80;;;;;;;6.07;77.87;99443.03;4943384;29;20051;-74
2023/01/14 02:51:47;;;;;;;6.03;0.50;;;;;;;6.08;77.63;99441.31;4939920;28;20054;-74
2023/01/14 02:54:16;;;;;;;7.53;0.95;;;;;;;6.07;77.61;99450.81;4937950;28;20049;-74
2023/01/14 02:56:44;;;;;;;8.63;0.73;;;;;;;6.06;77.63;99448.25;4943143;28;20043;-74
2023/01/14 02:59:26;;;;;;;3.85;0.40;;;;;;;5.92;77.55;99422.63;4941899;28;20393;-74
2023/01/14 03:02:27;;;;;;;8.00;0.70;;;;;;;6.08;77.67;99449.94;4945373;28;20063;-73
2023/01/14 03:05:11;;;;;;;6.30;1.30;;;;;;;6.07;77.71;99456.00;4942550;29;20051;-74
2023/01/14 03:07:45;;;;;;;5.60;0.75;;;;;;;6.08;77.54;99456.84;4938406;28;20055;-73
2023/01/14 03:10:17;;;;;;;3.78;0.40;;;;;;;6.07;77.51;99449.97;4943176;28;20043;-73
2023/01/14 03:12:48;;;;;;;3.75;0.40;;;;;;;6.08;77.81;99457.69;4938134;29;20059;-74
2023/01/14 03:15:24;;;;;;;6.32;0.55;;;;;;;6.03;77.59;99443.13;4940960;29;20047;-74
2023/01/14 03:17:59;;;;;;;7.82;0.50;;;;;;;6.03;77.61;99451.78;4938894;28;20057;-74
2023/01/14 03:20:30;;;;;;;9.93;0.98;;;;;;;6.07;77.67;99458.59;4939401;28;20047;-74
2023/01/14 03:23:01;;;;;;;8.60;0.50;;;;;;;6.06;77.72;99464.69;4944080;28;20051;-74
2023/01/14 03:25:31;;;;;;;1.65;0.40;;;;;;;6.06;77.41;99456.91;4940319;28;20057;-74
2023/01/14 03:28:02;;;;;;;18.17;2.35;;;;;;;6.06;77.52;99454.31;4939540;28;20059;-73
2023/01/14 03:30:34;;;;;;;9.27;0.60;;;;;;;6.07;77.67;99448.22;4940410;28;20539;-73
2023/01/14 03:33:05;;;;;;;6.22;0.57;;;;;;;6.06;77.85;99456.03;4937371;29;20068;-74
2023/01/14 03:35:35;;;;;;;6.80;0.60;;;;;;;6.05;77.46;99452.59;4939925;28;20074;-73
2023/01/14 03:38:07;;;;;;;4.97;0.70;;;;;;;6.01;77.58;99450.97;4942808;28;20051;-74
2023/01/14 03:40:37;;;;;;;7.50;0.40;;;;;;;6.05;77.76;99452.59;4944133;28;20130;-74
2023/01/14 03:43:10;;;;;;;4.05;0.40;;;;;;;6.06;77.61;99456.91;4941048;28;20051;-74
2023/01/14 03:45:40;;;;;;;8.05;0.85;;;;;;;6.06;77.54;99456.03;4941987;28;20904;-73
2023/01/14 03:48:10;;;;;;;5.55;0.75;;;;;;;6.06;77.52;99458.63;4940351;28;20047;-74
2023/01/14 03:50:46;;;;;;;9.77;0.60;;;;;;;6.06;77.54;99456.91;4939530;28;20064;-74
2023/01/14 03:53:21;;;;;;;2.42;0.50;;;;;;;6.06;77.52;99449.13;4940432;28;20047;-74
2023/01/14 03:55:56;;;;;;;11.30;0.60;;;;;;;6.06;77.58;99449.13;4940216;28;20047;-74
2023/01/14 03:58:28;;;;;;;2.20;0.60;;;;;;;6.06;77.42;99453.44;4939123;28;20047;-74
2023/01/14 04:00:59;;;;;;;7.25;0.40;;;;;;;6.07;77.62;99449.97;4941273;28;20047;-74
2023/01/14 04:03:28;;;;;;;6.85;0.52;;;;;;;6.02;77.49;99447.47;4941142;28;20163;-73
2023/01/14 04:05:56;;;;;;;7.28;0.70;;;;;;;6.04;77.36;99445.72;4940022;28;20048;-73
2023/01/14 04:08:26;;;;;;;4.75;0.40;;;;;;;6.06;77.48;99454.31;4942190;29;20058;-74
2023/01/14 04:10:53;;;;;;;2.90;0.40;;;;;;;6.01;77.46;99445.78;4941185;28;20059;-73
2023/01/14 04:16:05;;;;;;;5.50;0.60;;;;;;;6.04;77.36;99456.06;4939372;28;20179;-74
2023/01/14 04:18:33;;;;;;;7.90;1.38;;;;;;;6.04;77.47;99453.47;4940813;28;20412;-74
2023/01/14 04:21:00;;;;;;;3.20;0.90;;;;;;;6.02;77.10;99446.63;4942606;29;20047;-74
2023/01/14 04:23:27;;;;;;;9.32;0.95;;;;;;;6.01;77.61;99440.59;4940705;29;20149;-75
2023/01/14 04:25:58;;;;;;;7.38;1.52;;;;;;;6.02;77.27;99457.84;4942058;28;20049;-73
2023/01/14 04:28:25;;;;;;;5.68;0.40;;;;;;;6.03;77.46;99454.38;4940387;28;20054;-73
2023/01/14 04:30:52;;;;;;;4.00;0.60;;;;;;;6.03;77.54;99454.38;4942135;29;20058;-73
2023/01/14 04:33:19;;;;;;;7.80;0.50;;;;;;;5.93;77.28;99437.31;4936543;28;20062;-74
2023/01/14 04:35:48;;;;;;;4.65;0.40;;;;;;;5.98;77.36;99445.84;4941868;28;20044;-74
2023/01/14 04:38:15;;;;;;;6.45;0.82;;;;;;;6.03;77.18;99450.91;4940976;28;20404;-74
2023/01/14 04:40:42;;;;;;;4.28;0.85;;;;;;;6.03;77.31;99444.00;4941071;28;20061;-77
2023/01/14 04:43:08;;;;;;;3.22;0.40;;;;;;;6.01;77.53;99448.38;4939465;28;20567;-74
2023/01/14 04:45:35;;;;;;;6.97;0.47;;;;;;;6.01;77.36;99450.09;4940648;28;20106;-74
2023/01/14 04:48:02;;;;;;;6.93;1.10;;;;;;;5.99;77.48;99441.50;4942194;28;20054;-74
2023/01/14 04:50:33;;;;;;;4.18;0.70;;;;;;;6.03;77.32;99454.38;4940586;28;20052;-73
2023/01/14 04:53:10;;;;;;;7.22;0.50;;;;;;;6.05;77.22;99455.19;4941719;28;20055;-74
2023/01/14 04:55:39;;;;;;;4.47;0.40;;;;;;;5.97;77.21;99444.13;4937789;28;20047;-73
2023/01/14 04:58:07;;;;;;;7.82;0.50;;;;;;;6.04;77.35;99453.47;4937818;28;20048;-74
2023/01/14 05:00:34;;;;;;;7.00;0.40;;;;;;;5.99;77.35;99449.28;4938919;28;20056;-74
2023/01/14 05:03:02;;;;;;;10.23;0.63;;;;;;;6.02;77.13;99451.81;4944658;28;20500;-73
2023/01/14 05:05:29;;;;;;;6.40;0.43;;;;;;;5.92;77.33;99429.50;4945465;28;20059;-74
2023/01/14 05:07:56;;;;;;;4.82;0.95;;;;;;;6.03;77.32;99445.72;4942900;28;20051;-74
2023/01/14 05:10:24;;;;;;;3.83;1.05;;;;;;;6.04;77.33;99445.72;4946194;28;20083;-74
2023/01/14 05:12:57;;;;;;;11.95;0.98;;;;;;;6.02;77.33;99444.88;4943446;28;20058;-74
2023/01/14 05:15:25;;;;;;;11.75;1.20;;;;;;;6.02;77.05;99447.47;4943457;28;20058;-74
2023/01/14 05:17:52;;;;;;;8.90;0.52;;;;;;;6.02;77.36;99437.09;4943633;28;20058;-73
2023/01/14 05:20:19;;;;;;;7.38;0.50;;;;;;;6.01;77.21;99438.00;4944838;29;20054;-73
2023/01/14 05:22:46;;;;;;;6.72;0.40;;;;;;;6.02;77.37;99437.09;4943061;28;20047;-74
2023/01/14 05:25:13;;;;;;;4.00;0.38;;;;;;;6.03;77.16;99441.41;4942865;28;20440;-74
2023/01/14 05:27:41;;;;;;;5.07;0.40;;;;;;;6.02;77.17;99431.91;4944309;28;20077;-74
2023/01/14 05:30:09;;;;;;;2.65;0.20;;;;;;;6.03;77.21;99444.00;4945666;28;20053;-73
2023/01/14 05:32:36;;;;;;;6.18;0.40;;;;;;;6.02;77.30;99446.63;4943501;28;20047;-73
2023/01/14 05:35:03;;;;;;;3.85;0.40;;;;;;;5.99;77.37;99437.16;4938685;28;20495;-73
2023/01/14 05:37:30;;;;;;;5.32;1.02;;;;;;;6.01;77.38;99442.34;4942821;29;20055;-74
2023/01/14 05:39:56;;;;;;;7.60;0.63;;;;;;;6.01;77.22;99440.59;4942023;28;20066;-73
2023/01/14 05:47:55;;;;;;;1.80;0.30;;;;;;;5.97;77.22;99438.94;4941358;28;20062;-73
2023/01/14 05:50:22;;;;;;;8.45;1.38;;;;;;;6.00;77.34;99445.78;4942890;28;20518;-74
2023/01/14 05:52:49;;;;;;;10.25;0.63;;;;;;;5.99;77.37;99444.94;4941048;28;20051;-75
2023/01/14 05:55:16;;;;;;;8.38;0.82;;;;;;;5.99;77.40;99446.69;4944968;28;20412;-74
2023/01/14 05:57:43;;;;;;;5.28;0.43;;;;;;;5.99;77.49;99446.69;4941526;28;20420;-74
2023/01/14 06:06:20;;;;;;;8.35;0.73;;;;;;;6.00;77.24;99450.97;4941690;28;20063;-74
2023/01/14 06:08:29;;;;;;;1.92;0.30;;;;;;;6.01;77.40;99456.16;4940322;28;20676;-74
2023/01/14 06:10:56;;;;;;;5.32;0.47;;;;;;;5.98;77.31;99447.59;4943749;28;20058;-74
2023/01/14 06:13:23;;;;;;;4.95;0.70;;;;;;;6.02;77.48;99452.66;4939579;28;20051;-74
2023/01/14 06:15:52;;;;;;;4.13;0.35;;;;;;;6.03;77.26;99454.38;4944869;28;20051;-74
2023/01/14 06:18:22;;;;;;;8.40;0.50;;;;;;;5.98;77.47;99440.66;4940345;28;20062;-74
2023/01/14 06:20:50;;;;;;;4.70;0.40;;;;;;;6.02;77.39;99446.63;4945254;29;20431;-74
2023/01/14 06:23:17;;;;;;;6.00;0.38;;;;;;;5.96;77.23;99433.78;4944175;28;20051;-74
2023/01/14 06:25:45;;;;;;;7.13;0.57;;;;;;;5.99;77.37;99436.31;4940342;28;20793;-74
2023/01/14 06:28:13;;;;;;;4.70;0.30;;;;;;;6.05;77.30;99441.38;4944047;28;20048;-74
2023/01/14 06:30:40;;;;;;;3.63;0.70;;;;;;;6.03;77.38;99444.00;4940675;29;20440;-74
2023/01/14 06:33:08;;;;;;;5.38;0.40;;;;;;;6.02;77.49;99441.44;4941106;29;20056;-74
2023/01/14 06:35:40;;;;;;;2.15;0.55;;;;;;;6.02;77.45;99438.84;4942585;29;20039;-75
2023/01/14 06:38:07;;;;;;;7.93;0.40;;;;;;;6.04;77.26;99448.31;4938461;29;20039;-74
2023/01/14 06:40:33;;;;;;;7.25;1.35;;;;;;;5.95;77.36;99429.47;4942633;29;20142;-74
2023/01/14 06:43:00;;;;;;;5.93;1.08;;;;;;;6.07;77.39;99449.97;4942657;29;20051;-74
2023/01/14 06:45:27;;;;;;;5.57;0.40;;;;;;;6.06;77.42;99448.25;4940571;29;20492;-74
2023/01/14 06:47:54;;;;;;;4.38;0.35;;;;;;;6.02;76.97;99444.88;4941914;29;20051;-74
2023/01/14 06:50:23;;;;;;;1.95;0.32;;;;;;;6.05;77.17;99444.81;4941537;29;20139;-74
2023/01/14 06:52:52;;;;;;;7.43;0.68;;;;;;;6.06;77.50;99438.75;4942322;29;20385;-75
2023/01/14 06:55:19;;;;;;;2.88;0.60;;;;;;;6.06;77.45;99436.16;4945605;29;20062;-74
2023/01/14 06:57:46;;;;;;;4.00;0.30;;;;;;;6.06;77.41;99438.75;4939756;29;20057;-74
2023/01/14 07:00:16;;;;;;;1.05;0.35;;;;;;;6.07;77.40;99439.59;4939498;28;20039;-74
2023/01/14 07:02:43;;;;;;;4.68;0.30;;;;;;;6.00;77.35;99425.06;4940659;28;20051;-74
2023/01/14 07:05:10;;;;;;;9.85;0.95;;;;;;;6.07;77.28;99439.59;4942505;28;20053;-74
2023/01/14 07:07:38;;;;;;;4.65;0.47;;;;;;;6.05;77.23;99437.03;4942029;29;20062;-74
2023/01/14 07:10:05;;;;;;;5.78;0.38;;;;;;;6.08;77.16;99447.34;4945470;28;20048;-74
2023/01/14 07:12:32;;;;;;;7.38;0.52;;;;;;;6.09;77.31;99450.81;4938863;28;20057;-75
2023/01/14 07:14:59;;;;;;;8.98;1.30;;;;;;;6.00;77.54;99432.84;4944292;28;20047;-74
2023/01/14 07:17:26;;;;;;;5.80;0.70;;;;;;;6.10;77.37;99455.09;4939328;28;20550;-74
2023/01/14 07:19:53;;;;;;;7.38;0.30;;;;;;;6.07;77.23;99456.00;4942075;28;20043;-74
2023/01/14 07:22:20;;;;;;;9.20;0.52;;;;;;;6.10;77.03;99460.28;4938654;28;20056;-74
2023/01/14 07:24:48;;;;;;;5.45;0.95;;;;;;;6.11;77.22;99456.78;4940339;28;20051;-74
2023/01/14 07:27:15;;;;;;;5.55;0.40;;;;;;;6.10;77.39;99451.66;4936146;29;20058;-74
2023/01/14 07:29:42;;;;;;;2.38;0.40;;;;;;;6.09;77.16;99456.00;4941572;29;20054;-74
2023/01/14 07:32:09;;;;;;;9.25;0.50;;;;;;;6.11;77.19;99455.94;4940410;28;20051;-74
2023/01/14 07:34:35;;;;;;;3.38;0.40;;;;;;;6.12;77.37;99466.28;4941110;29;20412;-74
2023/01/14 07:37:03;;;;;;;3.70;0.30;;;;;;;6.13;77.05;99462.81;4941476;29;20051;-74
2023/01/14 07:39:30;;;;;;;3.25;0.60;;;;;;;6.12;77.17;99463.69;4942817;29;20546;-74
2023/01/14 07:41:58;;;;;;;2.45;0.30;;;;;;;6.12;77.10;99468.88;4940993;29;20048;-74
2023/01/14 07:44:25;;;;;;;7.93;0.60;;;;;;;6.13;77.04;99469.72;4942086;28;20146;-75
2023/01/14 07:46:53;;;;;;;3.92;0.30;;;;;;;6.12;77.12;99470.59;4940389;28;20476;-76
2023/01/14 07:49:21;;;;;;;3.38;0.25;;;;;;;6.03;77.21;99449.19;4943178;28;20058;-76
2023/01/14 07:51:48;;;;;;;3.70;0.70;;;;;;;6.13;77.24;99473.19;4939144;29;20055;-76
2023/01/14 07:54:15;;;;;;;3.90;0.50;;;;;;;6.14;77.03;99471.44;4942031;29;20053;-78
2023/01/14 07:56:42;;;;;;;4.93;0.60;;;;;;;6.14;77.24;99476.63;4942385;29;20050;-76
2023/01/14 07:59:11;;;;;;;8.38;0.35;;;;;;;6.15;77.25;99479.19;4942362;29;20835;-77
2023/01/14 08:01:38;;;;;;;7.88;0.40;;;;;;;6.16;77.20;99480.03;4942494;29;20051;-77
2023/01/14 08:04:05;;;;;;;6.60;0.45;;;;;;;6.16;77.15;99482.63;4938980;28;20054;-78
2023/01/14 08:06:32;;;;;;;8.93;0.77;;;;;;;6.15;77.08;99484.38;4940798;28;20066;-77
2023/01/14 08:09:01;;;;;;;3.90;1.15;;;;;;;6.16;77.19;99486.06;4941952;28;20427;-77
2023/01/14 08:11:28;;;;;;;2.63;0.82;;;;;;;6.16;76.96;99480.88;4941699;28;20039;-76
2023/01/14 08:13:55;;;;;;;5.00;0.40;;;;;;;6.12;77.09;99481.84;4944732;29;20049;-75
2023/01/14 08:16:23;;;;;;;2.92;0.40;;;;;;;6.16;77.31;99491.25;4942754;29;20045;-77
2023/01/14 08:18:50;;;;;;;7.22;0.47;;;;;;;6.17;77.13;99497.28;4945510;28;20408;-76
2023/01/14 08:21:18;;;;;;;2.50;0.40;;;;;;;6.18;77.16;99496.44;4943018;29;20059;-77
2023/01/14 08:23:44;;;;;;;3.97;0.45;;;;;;;6.18;77.05;99499.00;4941123;28;20055;-77
2023/01/14 08:26:13;;;;;;;1.23;0.40;;;;;;;6.18;77.22;99505.06;4943576;29;20052;-77
2023/01/14 08:28:41;;;;;;;4.53;0.85;;;;;;;6.13;77.24;99498.25;4940097;28;20055;-76
2023/01/14 08:31:10;;;;;;;2.20;0.20;;;;;;;6.19;77.13;99505.91;4938044;28;20052;-77
2023/01/14 08:33:40;;;;;;;7.93;1.08;;;;;;;6.19;77.14;99511.09;4938406;29;20080;-77
2023/01/14 08:36:09;;;;;;;7.45;1.40;;;;;;;6.18;77.42;99502.47;4940689;28;20412;-76
2023/01/14 08:38:37;;;;;;;6.07;0.60;;;;;;;6.19;77.24;99506.75;4949432;28;20054;-76
2023/01/14 08:41:05;;;;;;;2.85;0.60;;;;;;;6.19;77.42;99503.31;4947274;28;20043;-76
2023/01/14 08:43:32;;;;;;;3.50;0.60;;;;;;;6.19;77.17;99511.09;4946648;28;20052;-76
2023/01/14 08:45:59;;;;;;;3.13;0.50;;;;;;;6.19;77.77;99511.94;4945674;28;20461;-77
2023/01/14 08:48:26;;;;;;;3.33;0.50;;;;;;;6.20;77.12;99513.63;4945288;28;20051;-77
2023/01/14 08:50:54;;;;;;;5.53;0.50;;;;;;;6.21;77.22;99514.50;4945755;28;20404;-76
2023/01/14 08:53:21;;;;;;;2.35;0.40;;;;;;;6.21;77.23;99514.50;4946175;29;20062;-76
2023/01/14 08:55:48;;;;;;;3.20;0.80;;;;;;;6.21;77.54;99522.28;4944471;28;20142;-76
2023/01/14 08:58:15;;;;;;;3.25;0.40;;;;;;;6.19;77.13;99521.47;4943602;28;20039;-76
2023/01/14 09:00:42;;;;;;;3.15;0.50;;;;;;;6.21;77.68;99522.28;4945000;29;20152;-77
2023/01/14 09:03:09;;;;;;;3.45;0.80;;;;;;;6.22;77.53;99526.56;4946761;28;20580;-77
2023/01/14 09:05:35;;;;;;;3.47;0.45;;;;;;;6.23;77.33;99529.16;4944558;28;20105;-77
2023/01/14 09:19:05;;;;;;;0.57;0.30;;;;;;;6.19;77.40;99530.09;4946708;28;20085;-77
2023/01/14 09:21:32;;;;;;;3.08;0.35;;;;;;;6.24;77.27;99538.63;4942554;29;20055;-78
2023/01/14 09:24:00;;;;;;;2.25;0.35;;;;;;;6.24;77.58;99540.38;4945803;28;20072;-77
2023/01/14 09:26:27;;;;;;;2.90;0.30;;;;;;;6.21;77.34;99536.09;4943338;28;20058;-77
2023/01/14 09:28:54;;;;;;;1.42;0.30;;;;;;;6.16;77.38;99534.50;4944903;28;20057;-77
2023/01/14 09:31:20;;;;;;;4.80;2.05;;;;;;;6.25;77.30;99548.09;4947220;28;20548;-77
2023/01/14 09:33:47;;;;;;;3.13;0.20;;;;;;;6.25;77.52;99542.91;4944805;28;20062;-77
2023/01/14 09:36:14;;;;;;;4.68;0.30;;;;;;;6.25;77.40;99537.72;4942695;29;20051;-77
2023/01/14 09:38:41;;;;;;;0.95;0.20;;;;;;;6.24;77.44;99536.03;4942562;28;20054;-77
2023/01/14 09:41:23;;;;;;;1.77;0.20;;;;;;;6.24;77.76;99535.19;4945142;29;20492;-77
2023/01/14 09:43:50;;;;;;;1.65;0.20;;;;;;;6.19;77.37;99531.81;4942203;29;20054;-77
2023/01/14 09:46:17;;;;;;;0.70;0.20;;;;;;;6.20;77.47;99528.34;4947739;28;20057;-77
2023/01/14 09:48:44;;;;;;;2.50;0.40;;;;;;;6.18;77.33;99535.31;4945165;28;20052;-77
2023/01/14 09:51:28;;;;;;;0.93;0.35;;;;;;;6.25;77.59;99549.84;4938980;28;20404;-77
2023/01/14 09:54:05;;;;;;;3.90;0.30;;;;;;;6.23;77.38;99543.84;4945522;28;20063;-77
2023/01/14 09:56:40;;;;;;;3.17;0.70;;;;;;;6.17;77.60;99534.44;4946566;28;20051;-77
2023/01/14 09:59:14;;;;;;;3.17;0.20;;;;;;;6.24;77.34;99545.56;4942775;28;20055;-76
2023/01/14 10:01:47;;;;;;;1.07;0.30;;;;;;;6.27;77.54;99551.53;4943501;29;20302;-77
2023/01/14 10:04:39;;;;;;;1.75;0.20;;;;;;;6.19;77.36;99530.09;4946188;28;20047;-77
2023/01/14 10:07:08;;;;;;;2.15;0.30;;;;;;;6.17;77.47;99531.00;4945796;28;20056;-77
2023/01/14 10:09:40;;;;;;;0.47;0.20;;;;;;;6.27;77.50;99551.53;4941886;28;20488;-76
2023/01/14 10:12:17;;;;;;;0.98;0.40;;;;;;;6.28;77.46;99557.56;4944998;28;20047;-77
2023/01/14 10:14:51;;;;;;;1.48;0.20;;;;;;;6.28;77.67;99558.41;4940913;28;20493;-77
2023/01/14 10:17:22;;;;;;;1.50;0.20;;;;;;;6.25;77.54;99562.81;4940927;28;20047;-76
2023/01/14 10:19:51;;;;;;;2.88;0.20;;;;;;;6.21;77.82;99554.25;4945454;28;20607;-77
2023/01/14 10:22:36;;;;;;;1.58;0.20;;;;;;;6.21;77.47;99553.41;4943531;28;20045;-76
2023/01/14 10:25:04;;;;;;;2.40;0.20;;;;;;;6.30;77.38;99566.19;4941954;29;20044;-76
2023/01/14 10:27:32;;;;;;;0.50;0.20;;;;;;;6.30;77.54;99563.59;4945018;28;20489;-77
2023/01/14 10:30:17;;;;;;;3.72;0.20;;;;;;;6.30;77.57;99561.84;4941282;28;20149;-77
2023/01/14 10:32:45;;;;;;;0.82;0.20;;;;;;;6.30;77.66;99567.03;4941831;29;20048;-77
2023/01/14 10:35:15;;;;;;;1.40;0.32;;;;;;;6.26;77.40;99557.63;4942288;29;20485;-77
2023/01/14 10:37:42;;;;;;;0.68;0.20;;;;;;;6.25;77.81;99552.44;4941341;28;20148;-77
2023/01/14 10:40:21;;;;;;;0.80;0.10;;;;;;;6.33;77.73;99565.25;4943401;29;20044;-77
2023/01/14 10:42:49;;;;;;;8.80;1.38;;;;;;;6.29;77.61;99565.31;4943965;28;20048;-77
2023/01/14 10:45:16;;;;;;;0.20;0.15;;;;;;;6.20;77.56;99557.72;4941398;28;20093;-77
2023/01/14 10:47:45;;;;;;;0.65;0.10;;;;;;;6.08;77.72;99535.47;4942533;29;20046;-77
2023/01/14 10:50:22;;;;;;;0.15;0.10;;;;;;;6.33;77.74;99568.69;4945175;28;20444;-77
2023/01/14 10:52:52;;;;;;;0.30;0.17;;;;;;;6.20;77.65;99555.13;4945129;28;20058;-77
2023/01/14 10:55:22;;;;;;;0.35;0.10;;;;;;;6.33;77.53;99581.66;4947789;28;20047;-77
2023/01/14 10:57:54;;;;;;;0.20;0.10;;;;;;;6.30;78.00;99582.59;4938719;28;20058;-76
2023/01/14 11:00:38;;;;;;;0.73;0.10;;;;;;;6.16;77.72;99563.00;4943068;28;20400;-77
2023/01/14 11:03:08;;;;;;;2.65;0.17;;;;;;;6.33;77.46;99589.44;4943582;29;20709;-75
2023/01/14 11:05:37;;;;;;;0.17;0.10;;;;;;;6.32;77.34;99592.94;4939640;28;20078;-75
2023/01/14 11:08:19;;;;;;;0.17;0.15;;;;;;;6.33;77.69;99593.78;4939477;29;20075;-75
2023/01/14 11:10:54;;;;;;;1.48;0.15;;;;;;;6.33;77.51;99602.41;4938544;28;20048;-75
2023/01/14 11:13:41;;;;;;;0.40;0.20;;;;;;;6.34;77.40;99601.53;4941137;28;20039;-74
2023/01/14 11:16:27;;;;;;;0.70;0.20;;;;;;;6.34;77.54;99605.88;4940330;29;20078;-75
2023/01/14 11:18:57;;;;;;;0.20;0.15;;;;;;;6.33;77.39;99599.81;4941124;28;20039;-75
2023/01/14 11:21:26;;;;;;;0.40;0.20;;;;;;;6.32;77.52;99603.31;4940697;28;20108;-75
2023/01/14 11:23:58;;;;;;;0.20;0.10;;;;;;;6.33;77.31;99604.16;4944933;28;20134;-75
2023/01/14 11:26:28;;;;;;;0.38;0.10;;;;;;;6.32;77.41;99605.91;4938897;28;20130;-76
2023/01/14 11:29:16;;;;;;;1.85;0.10;;;;;;;6.25;77.73;99593.94;4941108;28;20047;-75
2023/01/14 11:31:44;;;;;;;0.10;0.10;;;;;;;6.30;77.40;99607.66;4937978;28;20449;-74
2023/01/14 11:34:25;;;;;;;0.60;0.10;;;;;;;6.32;77.42;99611.09;4941577;28;20075;-75
2023/01/14 11:36:52;;;;;;;0.20;0.10;;;;;;;6.31;77.26;99615.41;4943764;28;20690;-75
2023/01/14 11:39:21;;;;;;;0.28;0.10;;;;;;;6.29;77.12;99613.75;4940859;28;20382;-75
2023/01/14 11:41:48;;;;;;;1.02;0.10;;;;;;;6.26;77.30;99611.19;4939291;29;20051;-75
2023/01/14 11:44:25;;;;;;;0.77;0.10;;;;;;;6.27;77.25;99615.50;4939594;29;20146;-75
2023/01/14 11:47:15;;;;;;;1.92;0.30;;;;;;;6.31;76.94;99619.75;4939917;28;20440;-76
2023/01/14 11:49:42;;;;;;;0.55;0.10;;;;;;;6.03;77.29;99588.31;4942712;28;20043;-76
2023/01/14 11:52:19;;;;;;;0.52;0.10;;;;;;;6.27;76.96;99626.75;4943219;28;20053;-76
2023/01/14 11:54:50;;;;;;;0.10;0.10;;;;;;;6.27;76.96;99624.13;4940535;28;20043;-74
2023/01/14 11:57:21;;;;;;;0.40;0.10;;;;;;;6.27;76.92;99631.91;4938577;29;20613;-77
2023/01/14 11:59:51;;;;;;;0.00;0.00;;;;;;;6.27;77.07;99631.91;4943291;28;20054;-77
2023/01/14 12:02:23;;;;;;;0.20;0.10;;;;;;;6.26;76.79;99634.53;4943189;28;20055;-76
2023/01/14 12:04:57;;;;;;;0.40;0.00;;;;;;;6.21;77.03;99628.59;4942427;29;20055;-76
2023/01/14 12:07:30;;;;;;;0.10;0.10;;;;;;;6.25;77.15;99648.38;4941416;28;20062;-77
2023/01/14 12:10:01;;;;;;;0.77;0.10;;;;;;;6.25;76.62;99651.00;4938684;29;20411;-77
2023/01/14 12:16:48;;;;;;;0.13;0.10;;;;;;;6.23;76.68;99652.75;4943175;28;20062;-77
2023/01/14 12:18:18;;;;;;;0.73;0.00;;;;;;;6.23;76.95;99657.94;4939032;29;20061;-76
2023/01/14 12:20:45;;;;;;;0.40;0.05;;;;;;;6.23;76.64;99657.94;4942895;29;20596;-77
2023/01/14 12:23:17;;;;;;;1.65;0.10;;;;;;;6.21;76.66;99664.91;4942708;28;20051;-76
2023/01/14 12:25:48;;;;;;;0.10;0.00;;;;;;;6.21;76.77;99663.16;4942706;28;20066;-77